createdAt,value
2018-01-28T00:00:49.480Z,39.43
2018-01-28T00:03:17.011Z,38.97
2018-01-28T00:05:44.472Z,44.30
2018-01-28T00:08:11.935Z,45.47
2018-01-28T00:10:39.375Z,41.07
2018-01-28T00:13:06.784Z,48.13
2018-01-28T00:15:34.508Z,45.23
2018-01-28T00:18:01.960Z,47.63
2018-01-28T00:20:29.412Z,50.47
2018-01-28T00:22:57.084Z,46.57
2018-01-28T00:25:24.521Z,44.50
2018-01-28T00:27:51.945Z,51.27
2018-01-28T00:30:20.164Z,45.47
2018-01-28T00:32:47.662Z,48.37
2018-01-28T00:35:15.073Z,51.10
2018-01-28T00:37:42.843Z,51.20
2018-01-28T00:40:10.290Z,44.93
2018-01-28T00:42:37.755Z,61.70
2018-01-28T00:45:05.215Z,56.23
2018-01-28T00:47:32.665Z,55.70
2018-01-28T00:50:00.068Z,52.77
2018-01-28T00:52:28.612Z,68.17
2018-01-28T00:54:56.071Z,53.90
2018-01-28T00:57:23.500Z,60.50
2018-01-28T00:59:50.987Z,63.97
2018-01-28T01:02:18.416Z,63.60
2018-01-28T01:04:45.844Z,61.77
2018-01-28T01:07:14.044Z,58.60
2018-01-28T01:09:41.524Z,60.17
2018-01-28T01:12:08.988Z,60.17
2018-01-28T01:14:36.433Z,62.40
2018-01-28T01:17:03.900Z,55.03
2018-01-28T01:19:32.282Z,58.60
2018-01-28T01:21:59.712Z,59.77
2018-01-28T01:24:27.136Z,63.60
2018-01-28T01:26:56.073Z,65.43
2018-01-28T01:29:23.848Z,54.70
2018-01-28T01:31:51.308Z,53.03
2018-01-28T01:34:18.735Z,56.53
2018-01-28T01:36:46.163Z,51.73
2018-01-28T01:39:14.382Z,47.83
2018-01-28T01:41:41.808Z,50.67
2018-01-28T01:44:10.267Z,55.53
2018-01-28T01:46:37.708Z,53.70
2018-01-28T01:49:05.136Z,58.00
2018-01-28T01:51:32.589Z,59.63
2018-01-28T01:54:00.016Z,56.67
2018-01-28T01:56:28.236Z,62.00
2018-01-28T01:58:56.002Z,55.50
2018-01-28T02:01:23.424Z,54.00
2018-01-28T02:03:50.852Z,52.23
2018-01-28T02:06:18.363Z,44.27
2018-01-28T02:08:45.823Z,52.30
2018-01-28T02:11:13.252Z,41.43
2018-01-28T02:13:41.044Z,44.20
2018-01-28T02:16:08.501Z,42.07
2018-01-28T02:18:35.960Z,43.20
2018-01-28T02:21:03.412Z,47.80
2018-01-28T02:23:30.848Z,44.73
2018-01-28T02:25:58.336Z,41.60
2018-01-28T02:28:25.774Z,39.37
2018-01-28T02:30:53.261Z,39.70
2018-01-28T02:33:20.673Z,45.97
2018-01-28T02:35:48.458Z,43.67
2018-01-28T02:38:15.860Z,49.20
2018-01-28T02:40:43.375Z,44.27
2018-01-28T02:43:10.834Z,48.67
2018-01-28T02:45:38.287Z,46.47
2018-01-28T02:48:05.756Z,44.47
2018-01-28T02:50:33.209Z,52.57
2018-01-28T02:53:00.641Z,50.03
2018-01-28T02:55:28.124Z,57.97
2018-01-28T02:57:55.580Z,56.97
2018-01-28T03:00:23.024Z,54.07
2018-01-28T03:02:50.452Z,61.07
2018-01-28T03:05:18.873Z,60.50
2018-01-28T03:07:46.305Z,64.27
2018-01-28T03:10:13.747Z,70.70
2018-01-28T03:12:41.952Z,60.97
2018-01-28T03:15:09.384Z,68.73
2018-01-28T03:17:36.814Z,74.87
2018-01-28T03:20:04.250Z,72.73
2018-01-28T03:22:31.678Z,70.00
2018-01-28T03:24:59.101Z,69.43
2018-01-28T03:27:27.548Z,79.30
2018-01-28T03:29:55.000Z,69.07
2018-01-28T03:32:22.428Z,73.87
2018-01-28T03:34:49.868Z,74.20
2018-01-28T03:37:17.300Z,75.90
2018-01-28T03:39:45.524Z,68.07
2018-01-28T03:42:13.287Z,73.40
2018-01-28T03:44:40.739Z,85.43
2018-01-28T03:47:08.203Z,75.77
2018-01-28T03:49:35.648Z,75.27
2018-01-28T03:52:03.085Z,83.77
2018-01-28T03:54:30.552Z,78.27
2018-01-28T03:56:58.236Z,91.80
2018-01-28T03:59:25.672Z,84.07
2018-01-28T04:01:53.133Z,84.07
2018-01-28T04:04:20.579Z,87.30
2018-01-28T04:06:48.051Z,85.27
2018-01-28T04:09:15.481Z,97.63
2018-01-28T04:11:43.163Z,95.03
2018-01-28T04:14:10.595Z,93.90
2018-01-28T04:16:38.089Z,103.50
2018-01-28T04:19:05.526Z,90.90
2018-01-28T04:21:32.995Z,106.50
2018-01-28T04:24:00.441Z,111.83
2018-01-28T04:26:27.915Z,94.07
2018-01-28T04:28:55.336Z,96.10
2018-01-28T04:31:22.822Z,114.90
2018-01-28T04:33:50.285Z,106.60
2018-01-28T04:36:17.719Z,106.00
2018-01-28T04:38:45.144Z,110.23
2018-01-28T04:41:13.358Z,112.37
2018-01-28T04:43:40.796Z,107.60
2018-01-28T04:46:08.220Z,118.90
2018-01-28T04:48:37.475Z,101.13
2018-01-28T04:51:04.942Z,102.13
2018-01-28T04:53:32.367Z,119.33
2018-01-28T04:55:59.812Z,111.90
2018-01-28T04:58:28.022Z,116.57
2018-01-28T05:00:55.452Z,102.80
2018-01-28T05:03:22.901Z,118.97
2018-01-28T05:05:51.100Z,123.87
2018-01-28T05:08:18.566Z,113.00
2018-01-28T05:10:46.240Z,120.10
2018-01-28T05:13:13.668Z,120.27
2018-01-28T05:15:41.100Z,114.10
2018-01-28T05:18:09.629Z,102.57
2018-01-28T05:20:37.060Z,102.43
2018-01-28T05:23:04.511Z,111.47
2018-01-28T05:25:32.707Z,101.63
2018-01-28T05:28:00.169Z,91.93
2018-01-28T05:30:27.596Z,88.97
2018-01-28T05:32:55.804Z,92.23
2018-01-28T05:35:23.232Z,98.83
2018-01-28T05:37:50.676Z,81.20
2018-01-28T05:40:18.892Z,76.47
2018-01-28T05:42:46.341Z,83.07
2018-01-28T05:45:13.755Z,68.00
2018-01-28T05:47:42.293Z,76.57
2018-01-28T05:50:09.745Z,72.37
2018-01-28T05:52:37.176Z,69.90
2018-01-28T05:55:04.611Z,70.63
2018-01-28T05:57:32.807Z,74.20
2018-01-28T06:00:00.292Z,66.60
2018-01-28T06:02:27.776Z,74.70
2018-01-28T06:04:55.204Z,64.57
2018-01-28T06:07:22.636Z,69.10
2018-01-28T06:09:50.324Z,64.90
2018-01-28T06:12:17.752Z,59.23
2018-01-28T06:14:45.180Z,67.03
2018-01-28T06:17:12.695Z,55.97
2018-01-28T06:19:40.124Z,56.27
2018-01-28T06:22:07.555Z,59.17
2018-01-28T06:24:35.000Z,63.13
2018-01-28T06:27:02.431Z,52.13
2018-01-28T06:29:29.860Z,41.73
2018-01-28T06:31:57.640Z,58.20
2018-01-28T06:34:25.099Z,42.17
2018-01-28T06:36:52.555Z,42.57
2018-01-28T06:39:20.316Z,50.77
2018-01-28T06:41:47.756Z,41.47
2018-01-28T06:44:15.191Z,43.50
2018-01-28T06:46:43.392Z,42.97
2018-01-28T06:49:10.860Z,44.43
2018-01-28T06:51:38.288Z,43.80
2018-01-28T06:54:06.505Z,41.17
2018-01-28T06:56:33.928Z,44.17
2018-01-28T06:59:01.357Z,45.57
2018-01-28T07:01:29.587Z,53.60
2018-01-28T07:03:57.021Z,42.83
2018-01-28T07:06:24.444Z,39.97
2018-01-28T07:08:51.881Z,37.13
2018-01-28T07:11:19.416Z,40.90
2018-01-28T07:13:46.876Z,42.17
2018-01-28T07:16:14.652Z,46.10
2018-01-28T07:18:42.084Z,42.60
2018-01-28T07:21:09.512Z,42.43
2018-01-28T07:23:37.770Z,35.67
2018-01-28T07:26:05.287Z,38.93
2018-01-28T07:28:32.750Z,33.83
2018-01-28T07:31:00.189Z,33.40
2018-01-28T07:33:27.629Z,38.80
2018-01-28T07:35:55.116Z,47.67
2018-01-28T07:38:25.228Z,39.10
2018-01-28T07:40:52.659Z,35.97
2018-01-28T07:43:20.143Z,42.50
2018-01-28T07:45:47.608Z,36.80
2018-01-28T07:48:15.040Z,31.83
2018-01-28T07:50:42.463Z,38.87
2018-01-28T07:53:10.668Z,43.47
2018-01-28T07:55:38.148Z,32.33
2018-01-28T07:58:05.581Z,30.87
2018-01-28T08:00:33.271Z,32.83
2018-01-28T08:03:00.716Z,34.27
2018-01-28T08:05:28.124Z,31.57
2018-01-28T08:07:55.560Z,31.53
2018-01-28T08:10:28.660Z,32.83
2018-01-28T08:12:57.040Z,27.93
2018-01-28T08:15:24.564Z,31.27
2018-01-28T08:17:51.997Z,34.63
2018-01-28T08:20:19.688Z,27.67
2018-01-28T08:22:47.117Z,29.30
2018-01-28T08:25:14.660Z,33.90
2018-01-28T08:28:01.684Z,30.87
2018-01-28T08:30:29.108Z,33.43
2018-01-28T08:32:56.536Z,27.90
2018-01-28T08:35:23.988Z,31.27
2018-01-28T08:37:51.416Z,27.03
2018-01-28T08:40:18.902Z,38.33
2018-01-28T08:42:46.666Z,25.27
2018-01-28T08:45:14.113Z,28.77
2018-01-28T08:47:41.682Z,26.53
2018-01-28T08:50:09.139Z,24.60
2018-01-28T08:52:36.560Z,22.77
2018-01-28T08:55:04.044Z,27.27
2018-01-28T08:57:31.468Z,32.90
2018-01-28T08:59:59.682Z,29.57
2018-01-28T09:02:27.134Z,22.53
2018-01-28T09:04:54.628Z,30.60
2018-01-28T09:07:22.056Z,32.63
2018-01-28T09:09:49.509Z,32.77
2018-01-28T09:12:16.961Z,36.03
2018-01-28T09:14:44.426Z,26.77
2018-01-28T09:17:11.880Z,32.57
2018-01-28T09:19:39.311Z,32.20
2018-01-28T09:22:06.738Z,31.40
2018-01-28T09:24:34.274Z,34.53
2018-01-28T09:27:02.018Z,32.13
2018-01-28T09:29:29.476Z,32.83
2018-01-28T09:31:56.900Z,34.40
2018-01-28T09:34:25.251Z,38.53
2018-01-28T09:36:52.644Z,28.20
2018-01-28T09:39:20.065Z,31.60
2018-01-28T09:41:47.496Z,33.40
2018-01-28T09:44:14.937Z,32.80
2018-01-28T09:46:42.364Z,32.63
2018-01-28T09:49:09.796Z,29.93
2018-01-28T09:51:37.989Z,29.73
2018-01-28T09:54:06.187Z,27.03
2018-01-28T09:56:33.624Z,30.60
2018-01-28T09:59:02.028Z,31.83
2018-01-28T10:01:29.460Z,30.73
2018-01-28T10:03:56.941Z,36.70
2018-01-28T10:06:24.368Z,27.20
2018-01-28T10:08:51.859Z,28.47
2018-01-28T10:11:19.309Z,26.47
2018-01-28T10:13:46.738Z,32.40
2018-01-28T10:16:14.968Z,37.57
2018-01-28T10:18:42.422Z,32.60
2018-01-28T10:21:09.855Z,32.90
2018-01-28T10:23:37.319Z,39.30
2018-01-28T10:26:05.095Z,31.77
2018-01-28T10:28:32.548Z,33.80
2018-01-28T10:30:59.999Z,36.30
2018-01-28T10:33:27.716Z,36.57
2018-01-28T10:35:55.949Z,34.20
2018-01-28T10:38:23.373Z,30.73
2018-01-28T10:40:50.848Z,42.73
2018-01-28T10:43:18.316Z,35.93
2018-01-28T10:45:45.801Z,38.67
2018-01-28T10:48:13.544Z,33.37
2018-01-28T10:50:40.980Z,36.13
2018-01-28T10:53:08.437Z,33.40
2018-01-28T10:55:35.900Z,36.60
2018-01-28T10:58:03.333Z,40.87
2018-01-28T11:00:30.820Z,36.30
2018-01-28T11:02:58.264Z,33.30
2018-01-28T11:05:25.700Z,31.67
2018-01-28T11:07:53.197Z,34.80
2018-01-28T11:10:20.652Z,35.47
2018-01-28T11:12:48.094Z,39.97
2018-01-28T11:15:15.526Z,29.07
2018-01-28T11:17:43.844Z,27.87
2018-01-28T11:20:11.272Z,32.37
2018-01-28T11:22:38.708Z,32.23
2018-01-28T11:25:06.920Z,30.20
2018-01-28T11:27:34.387Z,37.43
2018-01-28T11:30:01.829Z,27.10
2018-01-28T11:32:29.296Z,28.83
2018-01-28T11:34:56.752Z,26.00
2018-01-28T11:37:24.184Z,26.63
2018-01-28T11:39:51.666Z,30.90
2018-01-28T11:42:19.124Z,26.43
2018-01-28T11:44:46.601Z,30.77
2018-01-28T11:47:14.040Z,20.80
2018-01-28T11:49:41.492Z,28.97
2018-01-28T11:52:08.920Z,26.77
2018-01-28T11:54:36.408Z,25.27
2018-01-28T11:57:03.836Z,29.13
2018-01-28T11:59:31.268Z,31.60
2018-01-28T12:01:58.781Z,26.40
2018-01-28T12:04:26.229Z,29.27
2018-01-28T12:06:53.707Z,22.13
2018-01-28T12:09:21.852Z,30.20
2018-01-28T12:11:49.328Z,29.70
2018-01-28T12:14:16.757Z,30.57
2018-01-28T12:16:44.240Z,26.27
2018-01-28T12:19:11.689Z,26.03
2018-01-28T12:21:39.164Z,29.07
2018-01-28T12:24:06.716Z,24.77
2018-01-28T12:26:34.278Z,19.47
2018-01-28T12:29:01.687Z,17.63
2018-01-28T12:31:30.132Z,21.47
2018-01-28T12:33:57.560Z,28.87
2018-01-28T12:36:24.995Z,23.23
2018-01-28T12:38:52.812Z,24.97
2018-01-28T12:41:20.244Z,22.00
2018-01-28T12:43:47.676Z,27.77
2018-01-28T12:46:15.365Z,22.53
2018-01-28T12:48:42.823Z,22.73
2018-01-28T12:51:10.256Z,21.57
2018-01-28T12:53:37.704Z,18.50
2018-01-28T12:56:05.141Z,28.97
2018-01-28T12:58:32.653Z,22.10
2018-01-28T13:01:00.089Z,22.23
2018-01-28T13:03:27.566Z,20.93
2018-01-28T13:05:55.000Z,26.13
2018-01-28T13:08:22.481Z,19.60
2018-01-28T13:10:49.916Z,23.73
2018-01-28T13:13:17.344Z,22.07
2018-01-28T13:15:45.876Z,25.30
2018-01-28T13:18:13.307Z,23.90
2018-01-28T13:20:40.737Z,20.87
2018-01-28T13:23:09.275Z,26.93
2018-01-28T13:25:36.704Z,34.90
2018-01-28T13:28:04.136Z,35.30
2018-01-28T13:30:32.661Z,31.77
2018-01-28T13:33:00.095Z,25.20
2018-01-28T13:35:27.593Z,47.10
2018-01-28T13:37:55.029Z,20.97
2018-01-28T13:40:22.460Z,36.57
2018-01-28T13:42:49.892Z,20.97
2018-01-28T13:45:17.416Z,32.27
2018-01-28T13:47:44.844Z,24.50
2018-01-28T13:50:12.271Z,29.67
2018-01-28T13:52:40.500Z,28.03
2018-01-28T13:55:07.936Z,29.13
2018-01-28T13:57:35.362Z,26.10
2018-01-28T14:00:03.583Z,21.50
2018-01-28T14:02:31.017Z,20.07
2018-01-28T14:04:58.451Z,19.90
2018-01-28T14:07:26.676Z,25.43
2018-01-28T14:09:54.100Z,23.63
2018-01-28T14:12:21.589Z,24.30
2018-01-28T14:14:49.044Z,22.03
2018-01-28T14:17:16.471Z,18.43
2018-01-28T14:19:43.904Z,19.37
2018-01-28T14:22:12.111Z,18.47
2018-01-28T14:24:39.542Z,20.20
2018-01-28T14:27:07.736Z,19.13
2018-01-28T14:29:35.216Z,21.73
2018-01-28T14:32:02.680Z,15.47
2018-01-28T14:34:30.107Z,17.63
2018-01-28T14:36:57.809Z,20.77
2018-01-28T14:39:25.241Z,12.70
2018-01-28T14:41:52.712Z,15.30
2018-01-28T14:44:20.158Z,9.80
2018-01-28T14:46:47.588Z,21.50
2018-01-28T14:49:15.780Z,13.53
2018-01-28T14:51:43.233Z,21.93
2018-01-28T14:54:10.660Z,12.47
2018-01-28T14:56:38.860Z,17.60
2018-01-28T14:59:06.315Z,17.10
2018-01-28T15:01:33.776Z,20.13
2018-01-28T15:04:01.232Z,19.03
2018-01-28T15:06:28.688Z,17.23
2018-01-28T15:08:56.123Z,22.67
2018-01-28T15:11:23.604Z,21.53
2018-01-28T15:13:51.060Z,12.37
2018-01-28T15:16:18.485Z,17.97
2018-01-28T15:18:45.972Z,18.50
2018-01-28T15:21:13.433Z,16.83
2018-01-28T15:23:40.868Z,15.23
2018-01-28T15:26:08.293Z,11.37
2018-01-28T15:28:36.492Z,17.97
2018-01-28T15:31:03.972Z,18.33
2018-01-28T15:33:31.400Z,17.20
2018-01-28T15:35:58.848Z,16.93
2018-01-28T15:38:27.048Z,29.40
2018-01-28T15:40:54.481Z,15.57
2018-01-28T15:43:22.690Z,19.67
2018-01-28T15:45:50.152Z,20.17
2018-01-28T15:48:17.584Z,18.37
2018-01-28T15:50:45.264Z,18.43
2018-01-28T15:53:12.704Z,23.10
2018-01-28T15:55:40.184Z,21.10
2018-01-28T15:58:07.636Z,22.13
2018-01-28T16:00:35.062Z,21.50
2018-01-28T16:03:03.262Z,28.57
2018-01-28T16:05:30.712Z,23.73
2018-01-28T16:07:58.144Z,23.60
2018-01-28T16:10:26.359Z,19.50
2018-01-28T16:12:53.816Z,17.50
2018-01-28T16:15:21.268Z,25.63
2018-01-28T16:17:48.708Z,22.93
2018-01-28T16:20:16.141Z,26.53
2018-01-28T16:22:44.340Z,19.30
2018-01-28T16:25:12.638Z,18.93
2018-01-28T16:27:40.087Z,18.13
2018-01-28T16:30:07.610Z,20.70
2018-01-28T16:32:35.020Z,16.50
2018-01-28T16:35:02.568Z,17.50
2018-01-28T16:37:30.041Z,21.43
2018-01-28T16:39:57.475Z,15.53
2018-01-28T16:42:24.944Z,20.03
2018-01-28T16:44:52.376Z,18.30
2018-01-28T16:47:19.824Z,20.77
2018-01-28T16:49:47.316Z,17.93
2018-01-28T16:52:14.748Z,16.13
2018-01-28T16:54:42.187Z,18.37
2018-01-28T16:57:09.874Z,20.67
2018-01-28T16:59:37.492Z,18.13
2018-01-28T17:02:05.692Z,18.83
2018-01-28T17:04:33.157Z,20.13
2018-01-28T17:07:00.625Z,17.33
2018-01-28T17:09:28.072Z,17.67
2018-01-28T17:11:55.873Z,18.37
2018-01-28T17:14:23.391Z,15.57
2018-01-28T17:16:50.852Z,18.53
2018-01-28T17:19:18.300Z,20.70
2018-01-28T17:21:45.736Z,21.07
2018-01-28T17:24:13.223Z,18.47
2018-01-28T17:26:40.684Z,20.60
2018-01-28T17:29:08.112Z,27.20
2018-01-28T17:31:35.556Z,20.13
2018-01-28T17:34:03.973Z,17.30
2018-01-28T17:36:31.405Z,17.63
2018-01-28T17:38:58.840Z,22.60
2018-01-28T17:41:27.056Z,19.63
2018-01-28T17:43:54.648Z,18.60
2018-01-28T17:46:22.076Z,14.93
2018-01-28T17:48:49.532Z,17.00
2018-01-28T17:51:16.968Z,18.83
2018-01-28T17:53:44.448Z,19.37
2018-01-28T17:56:11.888Z,20.87
2018-01-28T17:58:39.325Z,19.20
2018-01-28T18:01:07.525Z,21.80
2018-01-28T18:03:35.305Z,21.03
2018-01-28T18:06:02.733Z,21.10
2018-01-28T18:08:30.168Z,19.90
2018-01-28T18:10:58.712Z,24.40
2018-01-28T18:13:26.156Z,16.90
2018-01-28T18:15:53.602Z,19.07
2018-01-28T18:18:21.382Z,16.13
2018-01-28T18:20:48.817Z,20.17
2018-01-28T18:23:16.294Z,29.27
2018-01-28T18:25:44.454Z,21.50
2018-01-28T18:28:11.896Z,22.77
2018-01-28T18:30:39.386Z,26.63
2018-01-28T18:33:07.066Z,25.77
2018-01-28T18:35:34.731Z,22.93
2018-01-28T18:38:02.924Z,18.20
2018-01-28T18:40:31.138Z,17.07
2018-01-28T18:42:58.613Z,24.67
2018-01-28T18:45:26.770Z,22.27
2018-01-28T18:47:54.231Z,22.70
2018-01-28T18:50:21.657Z,23.17
2018-01-28T18:52:49.913Z,22.47
2018-01-28T18:55:17.640Z,22.97
2018-01-28T18:57:45.068Z,30.47
2018-01-28T19:00:12.517Z,31.23
2018-01-28T19:02:40.250Z,27.10
2018-01-28T19:05:07.779Z,27.13
2018-01-28T19:07:35.216Z,29.17
2018-01-28T19:10:02.668Z,22.30
2018-01-28T19:12:30.180Z,25.53
2018-01-28T19:14:58.372Z,29.53
2018-01-28T19:17:26.580Z,26.33
2018-01-28T19:19:54.057Z,24.67
2018-01-28T19:22:21.484Z,27.83
2018-01-28T19:24:48.964Z,34.83
2018-01-28T19:27:16.396Z,30.83
2018-01-28T19:29:43.826Z,25.63
2018-01-28T19:32:12.360Z,23.57
2018-01-28T19:34:39.802Z,22.13
2018-01-28T19:37:07.390Z,27.97
2018-01-28T19:39:34.842Z,24.27
2018-01-28T19:42:02.293Z,22.37
2018-01-28T19:44:29.740Z,19.97
2018-01-28T19:46:57.186Z,18.93
2018-01-28T19:49:24.667Z,18.73
2018-01-28T19:51:52.114Z,20.47
2018-01-28T19:54:19.894Z,18.77
2018-01-28T19:56:47.351Z,23.30
2018-01-28T19:59:14.812Z,23.53
2018-01-28T20:01:42.264Z,17.47
2018-01-28T20:04:09.688Z,19.57
2018-01-28T20:06:37.130Z,17.20
2018-01-28T20:09:06.524Z,20.07
2018-01-28T20:11:34.760Z,16.17
2018-01-28T20:14:02.302Z,22.77
2018-01-28T20:16:29.711Z,20.83
2018-01-28T20:18:57.933Z,17.73
2018-01-28T20:21:25.409Z,16.80
2018-01-28T20:23:53.176Z,19.30
2018-01-28T20:26:20.601Z,17.97
2018-01-28T20:28:48.036Z,26.30
2018-01-28T20:31:16.239Z,25.33
2018-01-28T20:33:43.708Z,29.07
2018-01-28T20:36:11.154Z,27.97
2018-01-28T20:38:38.624Z,22.60
2018-01-28T20:41:06.172Z,29.73
2018-01-28T20:43:33.640Z,23.77
2018-01-28T20:46:01.097Z,20.20
2018-01-28T20:48:28.544Z,21.07
2018-01-28T20:50:56.028Z,18.90
2018-01-28T20:53:23.572Z,24.63
2018-01-28T20:55:51.004Z,22.53
2018-01-28T20:58:18.431Z,19.93
2018-01-28T21:00:46.637Z,15.40
2018-01-28T21:03:14.182Z,19.87
2018-01-28T21:05:42.366Z,21.57
2018-01-28T21:08:09.797Z,20.77
2018-01-28T21:10:37.997Z,21.50
2018-01-28T21:13:05.480Z,20.47
2018-01-28T21:15:32.942Z,20.13
2018-01-28T21:18:00.377Z,23.10
2018-01-28T21:20:27.857Z,23.20
2018-01-28T21:22:55.303Z,22.93
2018-01-28T21:25:22.767Z,21.03
2018-01-28T21:27:50.198Z,21.83
2018-01-28T21:30:17.692Z,23.30
2018-01-28T21:32:45.132Z,22.53
2018-01-28T21:35:12.597Z,20.67
2018-01-28T21:37:40.043Z,25.67
2018-01-28T21:40:07.476Z,25.83
2018-01-28T21:42:34.908Z,25.20
2018-01-28T21:45:02.428Z,21.33
2018-01-28T21:47:29.877Z,20.07
2018-01-28T21:49:57.304Z,28.70
2018-01-28T21:52:25.101Z,26.83
2018-01-28T21:54:52.560Z,27.53
2018-01-28T21:57:19.993Z,27.30
2018-01-28T21:59:47.788Z,26.97
2018-01-28T22:02:15.220Z,28.40
2018-01-28T22:04:42.648Z,22.27
2018-01-28T22:07:10.876Z,22.73
2018-01-28T22:09:38.318Z,19.13
2018-01-28T22:12:05.734Z,25.17
2018-01-28T22:14:33.948Z,27.07
2018-01-28T22:17:01.388Z,25.47
2018-01-28T22:19:28.831Z,24.20
2018-01-28T22:21:57.048Z,27.87
2018-01-28T22:24:24.511Z,31.27
2018-01-28T22:26:51.965Z,29.47
2018-01-28T22:29:19.431Z,24.53
2018-01-28T22:31:46.872Z,29.20
2018-01-28T22:34:14.310Z,27.30
2018-01-28T22:36:41.801Z,26.90
2018-01-28T22:39:09.247Z,24.60
2018-01-28T22:41:36.683Z,26.20
2018-01-28T22:44:04.174Z,24.63
2018-01-28T22:46:31.607Z,25.47
2018-01-28T22:48:59.070Z,25.30
2018-01-28T22:51:26.537Z,24.27
2018-01-28T22:53:53.988Z,29.23
2018-01-28T22:56:21.421Z,29.83
2018-01-28T22:58:48.916Z,25.37
2018-01-28T23:01:16.352Z,26.33
2018-01-28T23:03:43.945Z,27.77
2018-01-28T23:06:11.480Z,27.10
2018-01-28T23:08:38.922Z,27.20
2018-01-28T23:11:06.396Z,28.87
2018-01-28T23:13:33.841Z,33.43
2018-01-28T23:16:01.314Z,24.27
2018-01-28T23:18:28.736Z,15.10
2018-01-28T23:20:56.241Z,23.10
2018-01-28T23:23:23.680Z,20.77
2018-01-28T23:25:51.136Z,26.07
2018-01-28T23:28:18.591Z,25.27
2018-01-28T23:30:46.037Z,21.40
2018-01-28T23:33:13.517Z,25.10
2018-01-28T23:35:41.203Z,25.10
2018-01-28T23:38:08.636Z,21.43
2018-01-28T23:40:36.075Z,23.00
2018-01-28T23:43:03.564Z,18.30
2018-01-28T23:45:31.095Z,24.83
2018-01-28T23:47:58.532Z,20.73
2018-01-28T23:50:26.336Z,19.00
2018-01-28T23:52:53.771Z,22.77
2018-01-28T23:55:21.260Z,18.07
2018-01-28T23:57:48.824Z,18.70
